Decoded Metar for KANK ( in ) (IATA:) | Meteo·Mobile Aviation Weather
aviador You're here:

KANK Decoded Metar

in
Report Time2018-08-21 10:15:00
UTC Time2018-08-21 10:38:16
Flight Rules vfr VFR
Wind250° at 06 kt
W.Decomp.*RWY 24: 5.9 kt HW 1.0 kt RCW
W.Rank250° ranks 1
Current wind is below 250° avg. (10.3)
Visibility9999 m
Phenomena:N/A
Clouds:N/A
Expected CloudBase > 1,600 ft AGL from Temp-Dew spread
CeilingNone
Temp11°C
Dew Point07°C (77% RH)
AAT8.2°C
QNH1030 hPa
Raw Report
KANK 211015Z AUTO 25006KT 10SM CLR 11/07 A3043 RMK AO1
T01120070=

Extra information for KANK:More info

Social comments